Balikesir, Turkey
Current Conditions -  °F | °C
As of 11:50 PM on Saturday 25 Oct 2014 (Local Time) from LTBF Reporting Station
Rain Showers Rain Showers  
Wind Chill: 12°   Ceiling: 10000
Heat Index: 12°   Visibility: 6mi
Dew Point: 11°   Wind: 0mph
Humidity: 94%   Direction: NA
Pressure: 29.94"   Gusts: NA
Location:  39.65°N, 27.88°E
Report Text: LTBF 252050Z 00000KT 9999 -SHRA SCT035 BKN100 12/11 Q1014 NOSIG
Loading
Personal Weather Stations






























Interactive Weather Map
Tropical Storm Tracking
New forecast layout! Learn more

10-Day Weather Forecast

Advertisements
Track Severe Weather on mobile